<?xml version="1.0" encoding="UTF-8" standalone="no" ?>
<gpx xmlns="http://www.topografix.com/GPX/1/1" xmlns:xsi="http://www.w3.org/2001/XMLSchema-instance" xsi:schemaLocation="http://www.topografix.com/GPX/1/1 http://www.topografix.com/GPX/1/1/gpx.xsd" version="1.1" creator="VisuGPX - https://www.visugpx.com">
  <metadata>
    <name>Hts Vercors </name>
  </metadata>
  <trk>
    <name><![CDATA[Trace 1787126094054]]></name>
    <trkseg>
      <trkpt lat="44.80545" lon="5.51184">
        <ele>1709.7</ele>
        <time>2026-08-19T07:54:54.054Z</time>
      </trkpt>
      <trkpt lat="44.80547" lon="5.51192">
        <ele>1686.7</ele>
        <time>2026-08-19T07:55:24.982Z</time>
      </trkpt>
      <trkpt lat="44.80513" lon="5.51207">
        <ele>1686.9</ele>
        <time>2026-08-19T07:55:55.068Z</time>
      </trkpt>
      <trkpt lat="44.80479" lon="5.51222">
        <ele>1703.6</ele>
        <time>2026-08-19T07:56:26.059Z</time>
      </trkpt>
      <trkpt lat="44.80485" lon="5.5124">
        <ele>1689.4</ele>
        <time>2026-08-19T07:56:57.061Z</time>
      </trkpt>
      <trkpt lat="44.80488" lon="5.51272">
        <ele>1682.7</ele>
        <time>2026-08-19T07:57:28.052Z</time>
      </trkpt>
      <trkpt lat="44.80468" lon="5.51294">
        <ele>1678.3</ele>
        <time>2026-08-19T07:57:58.052Z</time>
      </trkpt>
      <trkpt lat="44.80453" lon="5.51322">
        <ele>1677.8</ele>
        <time>2026-08-19T07:58:28.067Z</time>
      </trkpt>
      <trkpt lat="44.80465" lon="5.51368">
        <ele>1689.7</ele>
        <time>2026-08-19T07:58:59.061Z</time>
      </trkpt>
      <trkpt lat="44.80463" lon="5.514">
        <ele>1696.6</ele>
        <time>2026-08-19T07:59:30.014Z</time>
      </trkpt>
      <trkpt lat="44.80441" lon="5.51387">
        <ele>1710.9</ele>
        <time>2026-08-19T08:00:00.052Z</time>
      </trkpt>
      <trkpt lat="44.80428" lon="5.51394">
        <ele>1714</ele>
        <time>2026-08-19T08:00:31.052Z</time>
      </trkpt>
      <trkpt lat="44.80423" lon="5.51392">
        <ele>1712</ele>
        <time>2026-08-19T08:01:44.053Z</time>
      </trkpt>
      <trkpt lat="44.8041" lon="5.51405">
        <ele>1720.1</ele>
        <time>2026-08-19T08:02:15.052Z</time>
      </trkpt>
      <trkpt lat="44.80392" lon="5.51395">
        <ele>1724.1</ele>
        <time>2026-08-19T08:02:45.093Z</time>
      </trkpt>
      <trkpt lat="44.80384" lon="5.51397">
        <ele>1725.6</ele>
        <time>2026-08-19T08:03:16.075Z</time>
      </trkpt>
      <trkpt lat="44.80363" lon="5.51386">
        <ele>1730.7</ele>
        <time>2026-08-19T08:03:47.075Z</time>
      </trkpt>
      <trkpt lat="44.80336" lon="5.51388">
        <ele>1733.1</ele>
        <time>2026-08-19T08:04:18.056Z</time>
      </trkpt>
      <trkpt lat="44.8031" lon="5.51393">
        <ele>1735.9</ele>
        <time>2026-08-19T08:04:49.053Z</time>
      </trkpt>
      <trkpt lat="44.80292" lon="5.5139">
        <ele>1738</ele>
        <time>2026-08-19T08:05:20.052Z</time>
      </trkpt>
      <trkpt lat="44.80293" lon="5.51408">
        <ele>1747.1</ele>
        <time>2026-08-19T08:05:50.071Z</time>
      </trkpt>
      <trkpt lat="44.80302" lon="5.51417">
        <ele>1750.6</ele>
        <time>2026-08-19T08:06:21.052Z</time>
      </trkpt>
      <trkpt lat="44.80314" lon="5.51431">
        <ele>1753.1</ele>
        <time>2026-08-19T08:06:51.052Z</time>
      </trkpt>
      <trkpt lat="44.80334" lon="5.51461">
        <ele>1760.6</ele>
        <time>2026-08-19T08:07:21.052Z</time>
      </trkpt>
      <trkpt lat="44.80346" lon="5.51494">
        <ele>1767.4</ele>
        <time>2026-08-19T08:07:51.073Z</time>
      </trkpt>
      <trkpt lat="44.80356" lon="5.51527">
        <ele>1766.8</ele>
        <time>2026-08-19T08:08:22.052Z</time>
      </trkpt>
      <trkpt lat="44.80367" lon="5.51563">
        <ele>1771.5</ele>
        <time>2026-08-19T08:08:52.053Z</time>
      </trkpt>
      <trkpt lat="44.8037" lon="5.51573">
        <ele>1772.1</ele>
        <time>2026-08-19T08:09:34.069Z</time>
      </trkpt>
      <trkpt lat="44.80385" lon="5.51608">
        <ele>1776.3</ele>
        <time>2026-08-19T08:10:26.051Z</time>
      </trkpt>
      <trkpt lat="44.80392" lon="5.51639">
        <ele>1784.5</ele>
        <time>2026-08-19T08:10:56.095Z</time>
      </trkpt>
      <trkpt lat="44.80393" lon="5.51638">
        <ele>1783.4</ele>
        <time>2026-08-19T08:11:37.051Z</time>
      </trkpt>
      <trkpt lat="44.80403" lon="5.51673">
        <ele>1791.4</ele>
        <time>2026-08-19T08:12:08.052Z</time>
      </trkpt>
      <trkpt lat="44.80408" lon="5.51706">
        <ele>1797.8</ele>
        <time>2026-08-19T08:12:38.052Z</time>
      </trkpt>
      <trkpt lat="44.80416" lon="5.51741">
        <ele>1800.1</ele>
        <time>2026-08-19T08:13:08.064Z</time>
      </trkpt>
      <trkpt lat="44.80424" lon="5.51775">
        <ele>1803.1</ele>
        <time>2026-08-19T08:13:39.052Z</time>
      </trkpt>
      <trkpt lat="44.80424" lon="5.51818">
        <ele>1806.6</ele>
        <time>2026-08-19T08:14:09.052Z</time>
      </trkpt>
      <trkpt lat="44.7953" lon="5.53377">
        <ele>1881.6</ele>
        <time>2026-08-19T08:42:57.057Z</time>
      </trkpt>
      <trkpt lat="44.79534" lon="5.53378">
        <ele>1901.6</ele>
        <time>2026-08-19T08:52:02.056Z</time>
      </trkpt>
      <trkpt lat="44.7953" lon="5.53373">
        <ele>1902.2</ele>
        <time>2026-08-19T09:01:00.057Z</time>
      </trkpt>
      <trkpt lat="44.79499" lon="5.53347">
        <ele>1899.5</ele>
        <time>2026-08-19T09:01:30.081Z</time>
      </trkpt>
      <trkpt lat="44.79469" lon="5.53338">
        <ele>1895.8</ele>
        <time>2026-08-19T09:02:01.003Z</time>
      </trkpt>
      <trkpt lat="44.79438" lon="5.53306">
        <ele>1894.5</ele>
        <time>2026-08-19T09:02:31.057Z</time>
      </trkpt>
      <trkpt lat="44.79404" lon="5.53297">
        <ele>1897</ele>
        <time>2026-08-19T09:03:01.057Z</time>
      </trkpt>
      <trkpt lat="44.79369" lon="5.53306">
        <ele>1897.5</ele>
        <time>2026-08-19T09:03:31.107Z</time>
      </trkpt>
      <trkpt lat="44.79332" lon="5.53312">
        <ele>1899.7</ele>
        <time>2026-08-19T09:04:02.082Z</time>
      </trkpt>
      <trkpt lat="44.79294" lon="5.53326">
        <ele>1904.2</ele>
        <time>2026-08-19T09:04:33.067Z</time>
      </trkpt>
      <trkpt lat="44.79275" lon="5.53333">
        <ele>1906</ele>
        <time>2026-08-19T09:05:03.990Z</time>
      </trkpt>
      <trkpt lat="44.79256" lon="5.53366">
        <ele>1907.7</ele>
        <time>2026-08-19T09:05:34.057Z</time>
      </trkpt>
      <trkpt lat="44.79226" lon="5.53356">
        <ele>1910.1</ele>
        <time>2026-08-19T09:06:05.056Z</time>
      </trkpt>
      <trkpt lat="44.79201" lon="5.5335">
        <ele>1916.6</ele>
        <time>2026-08-19T09:06:35.091Z</time>
      </trkpt>
      <trkpt lat="44.79189" lon="5.53353">
        <ele>1922.7</ele>
        <time>2026-08-19T09:07:06.073Z</time>
      </trkpt>
      <trkpt lat="44.79185" lon="5.53347">
        <ele>1924.1</ele>
        <time>2026-08-19T09:07:37.058Z</time>
      </trkpt>
      <trkpt lat="44.79165" lon="5.53342">
        <ele>1927.5</ele>
        <time>2026-08-19T09:08:08.057Z</time>
      </trkpt>
      <trkpt lat="44.7914" lon="5.53347">
        <ele>1933.2</ele>
        <time>2026-08-19T09:08:39.026Z</time>
      </trkpt>
      <trkpt lat="44.79138" lon="5.53351">
        <ele>1929.3</ele>
        <time>2026-08-19T09:10:19.056Z</time>
      </trkpt>
      <trkpt lat="44.79146" lon="5.53398">
        <ele>1924.5</ele>
        <time>2026-08-19T09:10:49.056Z</time>
      </trkpt>
      <trkpt lat="44.79153" lon="5.53439">
        <ele>1923.8</ele>
        <time>2026-08-19T09:11:19.089Z</time>
      </trkpt>
      <trkpt lat="44.79171" lon="5.5346">
        <ele>1919.5</ele>
        <time>2026-08-19T09:11:50.073Z</time>
      </trkpt>
      <trkpt lat="44.79167" lon="5.53478">
        <ele>1920.2</ele>
        <time>2026-08-19T09:12:21.086Z</time>
      </trkpt>
      <trkpt lat="44.79157" lon="5.535">
        <ele>1919.5</ele>
        <time>2026-08-19T09:12:52.056Z</time>
      </trkpt>
      <trkpt lat="44.79156" lon="5.53503">
        <ele>1915.8</ele>
        <time>2026-08-19T09:14:23.082Z</time>
      </trkpt>
      <trkpt lat="44.79157" lon="5.53545">
        <ele>1909.7</ele>
        <time>2026-08-19T09:14:54.068Z</time>
      </trkpt>
      <trkpt lat="44.79148" lon="5.5359">
        <ele>1902.1</ele>
        <time>2026-08-19T09:15:25.032Z</time>
      </trkpt>
      <trkpt lat="44.79116" lon="5.53621">
        <ele>1887.1</ele>
        <time>2026-08-19T09:15:55.057Z</time>
      </trkpt>
      <trkpt lat="44.79095" lon="5.53666">
        <ele>1878.5</ele>
        <time>2026-08-19T09:16:25.110Z</time>
      </trkpt>
      <trkpt lat="44.79084" lon="5.53723">
        <ele>1870</ele>
        <time>2026-08-19T09:16:56.095Z</time>
      </trkpt>
      <trkpt lat="44.79071" lon="5.5378">
        <ele>1866.9</ele>
        <time>2026-08-19T09:17:27.078Z</time>
      </trkpt>
      <trkpt lat="44.79051" lon="5.53839">
        <ele>1864.2</ele>
        <time>2026-08-19T09:17:58.064Z</time>
      </trkpt>
      <trkpt lat="44.79026" lon="5.53888">
        <ele>1861.6</ele>
        <time>2026-08-19T09:18:29.056Z</time>
      </trkpt>
      <trkpt lat="44.7899" lon="5.53903">
        <ele>1858.2</ele>
        <time>2026-08-19T09:18:59.056Z</time>
      </trkpt>
      <trkpt lat="44.7897" lon="5.53929">
        <ele>1859.4</ele>
        <time>2026-08-19T09:19:30.056Z</time>
      </trkpt>
      <trkpt lat="44.78938" lon="5.53954">
        <ele>1855.4</ele>
        <time>2026-08-19T09:20:00.091Z</time>
      </trkpt>
      <trkpt lat="44.789" lon="5.53973">
        <ele>1851.1</ele>
        <time>2026-08-19T09:20:31.076Z</time>
      </trkpt>
      <trkpt lat="44.7886" lon="5.53988">
        <ele>1849.6</ele>
        <time>2026-08-19T09:21:02.061Z</time>
      </trkpt>
      <trkpt lat="44.78822" lon="5.54009">
        <ele>1847.3</ele>
        <time>2026-08-19T09:21:32.985Z</time>
      </trkpt>
      <trkpt lat="44.78793" lon="5.54009">
        <ele>1849.2</ele>
        <time>2026-08-19T09:22:03.056Z</time>
      </trkpt>
      <trkpt lat="44.78788" lon="5.54042">
        <ele>1849.6</ele>
        <time>2026-08-19T09:22:33.085Z</time>
      </trkpt>
      <trkpt lat="44.78777" lon="5.54093">
        <ele>1848.5</ele>
        <time>2026-08-19T09:23:04.051Z</time>
      </trkpt>
      <trkpt lat="44.78763" lon="5.54144">
        <ele>1852.8</ele>
        <time>2026-08-19T09:23:35.076Z</time>
      </trkpt>
      <trkpt lat="44.78756" lon="5.54192">
        <ele>1858</ele>
        <time>2026-08-19T09:24:06.061Z</time>
      </trkpt>
      <trkpt lat="44.78736" lon="5.54214">
        <ele>1864.8</ele>
        <time>2026-08-19T09:24:37.057Z</time>
      </trkpt>
      <trkpt lat="44.78723" lon="5.54175">
        <ele>1861.4</ele>
        <time>2026-08-19T09:25:08.056Z</time>
      </trkpt>
      <trkpt lat="44.78697" lon="5.54184">
        <ele>1866.3</ele>
        <time>2026-08-19T09:25:38.057Z</time>
      </trkpt>
      <trkpt lat="44.78667" lon="5.54201">
        <ele>1867.6</ele>
        <time>2026-08-19T09:26:08.092Z</time>
      </trkpt>
      <trkpt lat="44.78631" lon="5.54217">
        <ele>1865</ele>
        <time>2026-08-19T09:26:39.078Z</time>
      </trkpt>
      <trkpt lat="44.78612" lon="5.54231">
        <ele>1865.5</ele>
        <time>2026-08-19T09:27:10.064Z</time>
      </trkpt>
      <trkpt lat="44.78609" lon="5.54229">
        <ele>1868.4</ele>
        <time>2026-08-19T09:32:00.056Z</time>
      </trkpt>
      <trkpt lat="44.78582" lon="5.54196">
        <ele>1873.2</ele>
        <time>2026-08-19T09:32:30.057Z</time>
      </trkpt>
      <trkpt lat="44.78561" lon="5.54154">
        <ele>1872.4</ele>
        <time>2026-08-19T09:33:00.064Z</time>
      </trkpt>
      <trkpt lat="44.7854" lon="5.54115">
        <ele>1870.9</ele>
        <time>2026-08-19T09:33:30.073Z</time>
      </trkpt>
      <trkpt lat="44.78516" lon="5.54074">
        <ele>1871.1</ele>
        <time>2026-08-19T09:34:01.056Z</time>
      </trkpt>
      <trkpt lat="44.78496" lon="5.54027">
        <ele>1872</ele>
        <time>2026-08-19T09:34:31.057Z</time>
      </trkpt>
      <trkpt lat="44.78472" lon="5.53984">
        <ele>1872.6</ele>
        <time>2026-08-19T09:35:02.057Z</time>
      </trkpt>
      <trkpt lat="44.78452" lon="5.53938">
        <ele>1874.5</ele>
        <time>2026-08-19T09:35:32.094Z</time>
      </trkpt>
      <trkpt lat="44.78439" lon="5.53894">
        <ele>1876.5</ele>
        <time>2026-08-19T09:36:03.079Z</time>
      </trkpt>
      <trkpt lat="44.78438" lon="5.53847">
        <ele>1873.2</ele>
        <time>2026-08-19T09:36:34.062Z</time>
      </trkpt>
      <trkpt lat="44.7844" lon="5.53803">
        <ele>1878.2</ele>
        <time>2026-08-19T09:37:05.057Z</time>
      </trkpt>
      <trkpt lat="44.78431" lon="5.53751">
        <ele>1875.3</ele>
        <time>2026-08-19T09:37:36.056Z</time>
      </trkpt>
      <trkpt lat="44.78428" lon="5.53697">
        <ele>1873.1</ele>
        <time>2026-08-19T09:38:06.056Z</time>
      </trkpt>
      <trkpt lat="44.78427" lon="5.53651">
        <ele>1879.7</ele>
        <time>2026-08-19T09:38:36.084Z</time>
      </trkpt>
      <trkpt lat="44.7842" lon="5.53602">
        <ele>1884</ele>
        <time>2026-08-19T09:39:07.069Z</time>
      </trkpt>
      <trkpt lat="44.78418" lon="5.53564">
        <ele>1887.8</ele>
        <time>2026-08-19T09:39:37.147Z</time>
      </trkpt>
      <trkpt lat="44.78411" lon="5.53512">
        <ele>1883.9</ele>
        <time>2026-08-19T09:40:07.990Z</time>
      </trkpt>
      <trkpt lat="44.78402" lon="5.53462">
        <ele>1886.4</ele>
        <time>2026-08-19T09:40:38.088Z</time>
      </trkpt>
      <trkpt lat="44.78392" lon="5.53412">
        <ele>1881.8</ele>
        <time>2026-08-19T09:41:09.056Z</time>
      </trkpt>
      <trkpt lat="44.78375" lon="5.53369">
        <ele>1881.4</ele>
        <time>2026-08-19T09:41:39.068Z</time>
      </trkpt>
      <trkpt lat="44.78359" lon="5.53325">
        <ele>1887.2</ele>
        <time>2026-08-19T09:42:10.003Z</time>
      </trkpt>
      <trkpt lat="44.78356" lon="5.53317">
        <ele>1893.8</ele>
        <time>2026-08-19T09:46:15.056Z</time>
      </trkpt>
      <trkpt lat="44.78334" lon="5.53274">
        <ele>1891.9</ele>
        <time>2026-08-19T09:46:45.056Z</time>
      </trkpt>
      <trkpt lat="44.78319" lon="5.53228">
        <ele>1888.9</ele>
        <time>2026-08-19T09:47:15.088Z</time>
      </trkpt>
      <trkpt lat="44.78314" lon="5.53176">
        <ele>1891.5</ele>
        <time>2026-08-19T09:47:45.969Z</time>
      </trkpt>
      <trkpt lat="44.78308" lon="5.53124">
        <ele>1889.2</ele>
        <time>2026-08-19T09:48:16.056Z</time>
      </trkpt>
      <trkpt lat="44.78303" lon="5.53072">
        <ele>1888</ele>
        <time>2026-08-19T09:48:46.056Z</time>
      </trkpt>
      <trkpt lat="44.78291" lon="5.53022">
        <ele>1886.1</ele>
        <time>2026-08-19T09:49:16.056Z</time>
      </trkpt>
      <trkpt lat="44.78277" lon="5.52973">
        <ele>1888.9</ele>
        <time>2026-08-19T09:49:46.077Z</time>
      </trkpt>
      <trkpt lat="44.78252" lon="5.52933">
        <ele>1890.9</ele>
        <time>2026-08-19T09:50:17.060Z</time>
      </trkpt>
      <trkpt lat="44.78226" lon="5.52896">
        <ele>1889.3</ele>
        <time>2026-08-19T09:50:48.063Z</time>
      </trkpt>
      <trkpt lat="44.78206" lon="5.52865">
        <ele>1883.5</ele>
        <time>2026-08-19T09:51:19.056Z</time>
      </trkpt>
      <trkpt lat="44.78181" lon="5.52829">
        <ele>1885</ele>
        <time>2026-08-19T09:51:50.056Z</time>
      </trkpt>
      <trkpt lat="44.78149" lon="5.5281">
        <ele>1885.3</ele>
        <time>2026-08-19T09:52:20.084Z</time>
      </trkpt>
      <trkpt lat="44.78129" lon="5.52797">
        <ele>1886.5</ele>
        <time>2026-08-19T09:52:51.068Z</time>
      </trkpt>
      <trkpt lat="44.7811" lon="5.52763">
        <ele>1888.8</ele>
        <time>2026-08-19T09:53:22.057Z</time>
      </trkpt>
      <trkpt lat="44.78092" lon="5.52721">
        <ele>1891.4</ele>
        <time>2026-08-19T09:53:52.057Z</time>
      </trkpt>
      <trkpt lat="44.78084" lon="5.52689">
        <ele>1892.7</ele>
        <time>2026-08-19T09:54:22.057Z</time>
      </trkpt>
      <trkpt lat="44.78083" lon="5.52684">
        <ele>1889.6</ele>
        <time>2026-08-19T09:54:53.056Z</time>
      </trkpt>
      <trkpt lat="44.78064" lon="5.52644">
        <ele>1885.9</ele>
        <time>2026-08-19T09:55:23.056Z</time>
      </trkpt>
      <trkpt lat="44.78043" lon="5.5261">
        <ele>1881</ele>
        <time>2026-08-19T09:55:53.057Z</time>
      </trkpt>
      <trkpt lat="44.78015" lon="5.52577">
        <ele>1881</ele>
        <time>2026-08-19T09:56:24.057Z</time>
      </trkpt>
      <trkpt lat="44.77987" lon="5.52542">
        <ele>1877.9</ele>
        <time>2026-08-19T09:56:55.056Z</time>
      </trkpt>
      <trkpt lat="44.77956" lon="5.52524">
        <ele>1872.6</ele>
        <time>2026-08-19T09:57:25.057Z</time>
      </trkpt>
      <trkpt lat="44.77955" lon="5.5249">
        <ele>1873.6</ele>
        <time>2026-08-19T09:57:55.078Z</time>
      </trkpt>
      <trkpt lat="44.77938" lon="5.52466">
        <ele>1871.2</ele>
        <time>2026-08-19T09:58:25.991Z</time>
      </trkpt>
      <trkpt lat="44.77912" lon="5.5247">
        <ele>1867.9</ele>
        <time>2026-08-19T09:58:56.056Z</time>
      </trkpt>
      <trkpt lat="44.77898" lon="5.52445">
        <ele>1856</ele>
        <time>2026-08-19T09:59:26.057Z</time>
      </trkpt>
      <trkpt lat="44.7788" lon="5.52412">
        <ele>1853</ele>
        <time>2026-08-19T09:59:56.057Z</time>
      </trkpt>
      <trkpt lat="44.77876" lon="5.52382">
        <ele>1841.7</ele>
        <time>2026-08-19T10:00:26.068Z</time>
      </trkpt>
      <trkpt lat="44.77868" lon="5.52367">
        <ele>1838.2</ele>
        <time>2026-08-19T10:00:57.056Z</time>
      </trkpt>
      <trkpt lat="44.77868" lon="5.5237">
        <ele>1841.4</ele>
        <time>2026-08-19T10:02:57.059Z</time>
      </trkpt>
      <trkpt lat="44.77853" lon="5.52331">
        <ele>1837.6</ele>
        <time>2026-08-19T10:03:27.086Z</time>
      </trkpt>
      <trkpt lat="44.77847" lon="5.52299">
        <ele>1845.4</ele>
        <time>2026-08-19T10:03:58.056Z</time>
      </trkpt>
      <trkpt lat="44.77833" lon="5.52278">
        <ele>1847.1</ele>
        <time>2026-08-19T10:04:28.084Z</time>
      </trkpt>
      <trkpt lat="44.77803" lon="5.52267">
        <ele>1848.6</ele>
        <time>2026-08-19T10:04:59.056Z</time>
      </trkpt>
      <trkpt lat="44.77803" lon="5.52251">
        <ele>1844.4</ele>
        <time>2026-08-19T10:05:29.073Z</time>
      </trkpt>
      <trkpt lat="44.77802" lon="5.5225">
        <ele>1845.6</ele>
        <time>2026-08-19T10:06:16.060Z</time>
      </trkpt>
      <trkpt lat="44.77775" lon="5.52246">
        <ele>1855.9</ele>
        <time>2026-08-19T10:06:47.056Z</time>
      </trkpt>
      <trkpt lat="44.77753" lon="5.52245">
        <ele>1858.9</ele>
        <time>2026-08-19T10:07:17.057Z</time>
      </trkpt>
      <trkpt lat="44.77752" lon="5.52245">
        <ele>1858.3</ele>
        <time>2026-08-19T10:08:12.057Z</time>
      </trkpt>
      <trkpt lat="44.77714" lon="5.52246">
        <ele>1854.7</ele>
        <time>2026-08-19T10:08:42.057Z</time>
      </trkpt>
      <trkpt lat="44.77678" lon="5.52254">
        <ele>1860.1</ele>
        <time>2026-08-19T10:09:13.056Z</time>
      </trkpt>
      <trkpt lat="44.77646" lon="5.52238">
        <ele>1851.1</ele>
        <time>2026-08-19T10:09:43.076Z</time>
      </trkpt>
      <trkpt lat="44.77624" lon="5.52224">
        <ele>1846.4</ele>
        <time>2026-08-19T10:10:13.082Z</time>
      </trkpt>
      <trkpt lat="44.77622" lon="5.52223">
        <ele>1845.1</ele>
        <time>2026-08-19T10:11:52.991Z</time>
      </trkpt>
      <trkpt lat="44.77595" lon="5.52206">
        <ele>1836</ele>
        <time>2026-08-19T10:12:23.056Z</time>
      </trkpt>
      <trkpt lat="44.77567" lon="5.52186">
        <ele>1829.7</ele>
        <time>2026-08-19T10:12:54.057Z</time>
      </trkpt>
      <trkpt lat="44.77547" lon="5.52159">
        <ele>1822.4</ele>
        <time>2026-08-19T10:13:25.057Z</time>
      </trkpt>
      <trkpt lat="44.77518" lon="5.52166">
        <ele>1812.7</ele>
        <time>2026-08-19T10:13:55.088Z</time>
      </trkpt>
      <trkpt lat="44.77488" lon="5.52157">
        <ele>1808.7</ele>
        <time>2026-08-19T10:14:26.042Z</time>
      </trkpt>
      <trkpt lat="44.77466" lon="5.52157">
        <ele>1806.7</ele>
        <time>2026-08-19T10:14:56.057Z</time>
      </trkpt>
      <trkpt lat="44.77465" lon="5.52157">
        <ele>1807</ele>
        <time>2026-08-19T10:15:45.056Z</time>
      </trkpt>
      <trkpt lat="44.77452" lon="5.5213">
        <ele>1798.9</ele>
        <time>2026-08-19T10:16:15.057Z</time>
      </trkpt>
      <trkpt lat="44.77448" lon="5.52086">
        <ele>1796.7</ele>
        <time>2026-08-19T10:16:46.082Z</time>
      </trkpt>
      <trkpt lat="44.77442" lon="5.52032">
        <ele>1802.6</ele>
        <time>2026-08-19T10:17:17.087Z</time>
      </trkpt>
      <trkpt lat="44.77446" lon="5.5199">
        <ele>1798.3</ele>
        <time>2026-08-19T10:17:48.071Z</time>
      </trkpt>
      <trkpt lat="44.77446" lon="5.51992">
        <ele>1791.5</ele>
        <time>2026-08-19T10:36:51.057Z</time>
      </trkpt>
      <trkpt lat="44.77465" lon="5.51954">
        <ele>1787.6</ele>
        <time>2026-08-19T10:37:22.056Z</time>
      </trkpt>
      <trkpt lat="44.77477" lon="5.51904">
        <ele>1782.9</ele>
        <time>2026-08-19T10:37:52.056Z</time>
      </trkpt>
      <trkpt lat="44.77471" lon="5.51851">
        <ele>1782.6</ele>
        <time>2026-08-19T10:38:22.069Z</time>
      </trkpt>
      <trkpt lat="44.77476" lon="5.51811">
        <ele>1783.5</ele>
        <time>2026-08-19T10:38:53.057Z</time>
      </trkpt>
      <trkpt lat="44.77499" lon="5.5181">
        <ele>1786.6</ele>
        <time>2026-08-19T10:39:24.057Z</time>
      </trkpt>
      <trkpt lat="44.77527" lon="5.51812">
        <ele>1789.1</ele>
        <time>2026-08-19T10:39:55.056Z</time>
      </trkpt>
      <trkpt lat="44.77549" lon="5.5178">
        <ele>1791.5</ele>
        <time>2026-08-19T10:40:25.081Z</time>
      </trkpt>
      <trkpt lat="44.77567" lon="5.51748">
        <ele>1793.1</ele>
        <time>2026-08-19T10:40:56.063Z</time>
      </trkpt>
      <trkpt lat="44.77582" lon="5.51714">
        <ele>1793.8</ele>
        <time>2026-08-19T10:41:27.056Z</time>
      </trkpt>
      <trkpt lat="44.77595" lon="5.51699">
        <ele>1796.1</ele>
        <time>2026-08-19T10:41:57.057Z</time>
      </trkpt>
      <trkpt lat="44.77594" lon="5.51699">
        <ele>1796.2</ele>
        <time>2026-08-19T10:43:14.057Z</time>
      </trkpt>
      <trkpt lat="44.77612" lon="5.51665">
        <ele>1788</ele>
        <time>2026-08-19T10:43:44.082Z</time>
      </trkpt>
      <trkpt lat="44.77633" lon="5.51627">
        <ele>1782.4</ele>
        <time>2026-08-19T10:44:15.056Z</time>
      </trkpt>
      <trkpt lat="44.77643" lon="5.51592">
        <ele>1783.9</ele>
        <time>2026-08-19T10:44:45.057Z</time>
      </trkpt>
      <trkpt lat="44.7765" lon="5.51541">
        <ele>1777.2</ele>
        <time>2026-08-19T10:45:15.075Z</time>
      </trkpt>
      <trkpt lat="44.77631" lon="5.5149">
        <ele>1772.3</ele>
        <time>2026-08-19T10:45:46.058Z</time>
      </trkpt>
      <trkpt lat="44.77626" lon="5.51437">
        <ele>1770.1</ele>
        <time>2026-08-19T10:46:17.056Z</time>
      </trkpt>
      <trkpt lat="44.77621" lon="5.51397">
        <ele>1768.3</ele>
        <time>2026-08-19T10:46:47.056Z</time>
      </trkpt>
      <trkpt lat="44.77645" lon="5.51361">
        <ele>1764.3</ele>
        <time>2026-08-19T10:47:18.057Z</time>
      </trkpt>
      <trkpt lat="44.7765" lon="5.51335">
        <ele>1770</ele>
        <time>2026-08-19T10:47:48.073Z</time>
      </trkpt>
      <trkpt lat="44.77651" lon="5.51333">
        <ele>1769.2</ele>
        <time>2026-08-19T10:49:14.082Z</time>
      </trkpt>
      <trkpt lat="44.77667" lon="5.51291">
        <ele>1764.7</ele>
        <time>2026-08-19T10:49:45.065Z</time>
      </trkpt>
      <trkpt lat="44.77678" lon="5.51248">
        <ele>1762.4</ele>
        <time>2026-08-19T10:50:16.057Z</time>
      </trkpt>
      <trkpt lat="44.77681" lon="5.51202">
        <ele>1761.9</ele>
        <time>2026-08-19T10:50:47.057Z</time>
      </trkpt>
      <trkpt lat="44.77681" lon="5.51156">
        <ele>1749.6</ele>
        <time>2026-08-19T10:51:17.057Z</time>
      </trkpt>
      <trkpt lat="44.77701" lon="5.51115">
        <ele>1742.8</ele>
        <time>2026-08-19T10:51:47.084Z</time>
      </trkpt>
      <trkpt lat="44.77722" lon="5.51072">
        <ele>1747.3</ele>
        <time>2026-08-19T10:52:18.068Z</time>
      </trkpt>
      <trkpt lat="44.7774" lon="5.51028">
        <ele>1740.3</ele>
        <time>2026-08-19T10:52:49.056Z</time>
      </trkpt>
      <trkpt lat="44.77756" lon="5.5098">
        <ele>1740.1</ele>
        <time>2026-08-19T10:53:19.056Z</time>
      </trkpt>
      <trkpt lat="44.77778" lon="5.50941">
        <ele>1736.7</ele>
        <time>2026-08-19T10:53:50.056Z</time>
      </trkpt>
      <trkpt lat="44.77806" lon="5.50925">
        <ele>1744.7</ele>
        <time>2026-08-19T10:54:20.088Z</time>
      </trkpt>
      <trkpt lat="44.77829" lon="5.5091">
        <ele>1753.5</ele>
        <time>2026-08-19T10:54:51.071Z</time>
      </trkpt>
      <trkpt lat="44.77854" lon="5.50908">
        <ele>1756.5</ele>
        <time>2026-08-19T10:55:22.057Z</time>
      </trkpt>
      <trkpt lat="44.77881" lon="5.50905">
        <ele>1755.2</ele>
        <time>2026-08-19T10:55:53.057Z</time>
      </trkpt>
      <trkpt lat="44.77905" lon="5.50875">
        <ele>1758.8</ele>
        <time>2026-08-19T10:56:24.056Z</time>
      </trkpt>
      <trkpt lat="44.77926" lon="5.50844">
        <ele>1766.9</ele>
        <time>2026-08-19T10:56:54.056Z</time>
      </trkpt>
      <trkpt lat="44.77948" lon="5.50813">
        <ele>1768.3</ele>
        <time>2026-08-19T10:57:25.084Z</time>
      </trkpt>
      <trkpt lat="44.77977" lon="5.50799">
        <ele>1757</ele>
        <time>2026-08-19T10:57:55.966Z</time>
      </trkpt>
      <trkpt lat="44.78001" lon="5.50785">
        <ele>1751.7</ele>
        <time>2026-08-19T10:58:25.984Z</time>
      </trkpt>
      <trkpt lat="44.78027" lon="5.50759">
        <ele>1753.4</ele>
        <time>2026-08-19T10:58:56.057Z</time>
      </trkpt>
      <trkpt lat="44.78049" lon="5.50733">
        <ele>1755.3</ele>
        <time>2026-08-19T10:59:27.057Z</time>
      </trkpt>
      <trkpt lat="44.78069" lon="5.50703">
        <ele>1759</ele>
        <time>2026-08-19T10:59:57.085Z</time>
      </trkpt>
      <trkpt lat="44.781" lon="5.50679">
        <ele>1759.5</ele>
        <time>2026-08-19T11:00:28.070Z</time>
      </trkpt>
      <trkpt lat="44.78109" lon="5.50633">
        <ele>1755.2</ele>
        <time>2026-08-19T11:00:59.056Z</time>
      </trkpt>
      <trkpt lat="44.78139" lon="5.50631">
        <ele>1743.9</ele>
        <time>2026-08-19T11:01:29.056Z</time>
      </trkpt>
      <trkpt lat="44.78163" lon="5.50649">
        <ele>1747.4</ele>
        <time>2026-08-19T11:01:59.057Z</time>
      </trkpt>
      <trkpt lat="44.78173" lon="5.50659">
        <ele>1748</ele>
        <time>2026-08-19T11:02:29.088Z</time>
      </trkpt>
      <trkpt lat="44.78174" lon="5.50661">
        <ele>1749.1</ele>
        <time>2026-08-19T11:04:54.966Z</time>
      </trkpt>
      <trkpt lat="44.78197" lon="5.50695">
        <ele>1745.1</ele>
        <time>2026-08-19T11:05:25.023Z</time>
      </trkpt>
      <trkpt lat="44.78227" lon="5.50718">
        <ele>1742.5</ele>
        <time>2026-08-19T11:05:55.056Z</time>
      </trkpt>
      <trkpt lat="44.78257" lon="5.507">
        <ele>1742</ele>
        <time>2026-08-19T11:06:26.056Z</time>
      </trkpt>
      <trkpt lat="44.78287" lon="5.50686">
        <ele>1741.8</ele>
        <time>2026-08-19T11:06:56.083Z</time>
      </trkpt>
      <trkpt lat="44.78319" lon="5.50687">
        <ele>1734</ele>
        <time>2026-08-19T11:07:27.068Z</time>
      </trkpt>
      <trkpt lat="44.7835" lon="5.50697">
        <ele>1726.6</ele>
        <time>2026-08-19T11:07:58.057Z</time>
      </trkpt>
      <trkpt lat="44.78374" lon="5.50704">
        <ele>1715.4</ele>
        <time>2026-08-19T11:08:28.057Z</time>
      </trkpt>
      <trkpt lat="44.78398" lon="5.5069">
        <ele>1711.6</ele>
        <time>2026-08-19T11:08:58.057Z</time>
      </trkpt>
      <trkpt lat="44.78422" lon="5.50677">
        <ele>1707.5</ele>
        <time>2026-08-19T11:09:28.084Z</time>
      </trkpt>
      <trkpt lat="44.78452" lon="5.50688">
        <ele>1701.1</ele>
        <time>2026-08-19T11:09:59.068Z</time>
      </trkpt>
      <trkpt lat="44.78489" lon="5.50696">
        <ele>1700.1</ele>
        <time>2026-08-19T11:10:30.057Z</time>
      </trkpt>
      <trkpt lat="44.78504" lon="5.50705">
        <ele>1694</ele>
        <time>2026-08-19T11:11:00.057Z</time>
      </trkpt>
      <trkpt lat="44.78524" lon="5.50726">
        <ele>1687.2</ele>
        <time>2026-08-19T11:11:31.057Z</time>
      </trkpt>
      <trkpt lat="44.7856" lon="5.50733">
        <ele>1689.2</ele>
        <time>2026-08-19T11:12:01.057Z</time>
      </trkpt>
      <trkpt lat="44.78592" lon="5.50709">
        <ele>1692.3</ele>
        <time>2026-08-19T11:12:31.071Z</time>
      </trkpt>
      <trkpt lat="44.78629" lon="5.50703">
        <ele>1695.8</ele>
        <time>2026-08-19T11:13:02.085Z</time>
      </trkpt>
      <trkpt lat="44.7865" lon="5.50681">
        <ele>1694.7</ele>
        <time>2026-08-19T11:13:33.057Z</time>
      </trkpt>
      <trkpt lat="44.7868" lon="5.50667">
        <ele>1695.7</ele>
        <time>2026-08-19T11:14:03.057Z</time>
      </trkpt>
      <trkpt lat="44.78709" lon="5.50651">
        <ele>1693.9</ele>
        <time>2026-08-19T11:14:34.056Z</time>
      </trkpt>
      <trkpt lat="44.7874" lon="5.50632">
        <ele>1698.5</ele>
        <time>2026-08-19T11:15:04.078Z</time>
      </trkpt>
      <trkpt lat="44.78772" lon="5.50609">
        <ele>1696.8</ele>
        <time>2026-08-19T11:15:35.063Z</time>
      </trkpt>
      <trkpt lat="44.78802" lon="5.50585">
        <ele>1692.3</ele>
        <time>2026-08-19T11:16:06.067Z</time>
      </trkpt>
      <trkpt lat="44.78834" lon="5.50606">
        <ele>1685.6</ele>
        <time>2026-08-19T11:16:37.056Z</time>
      </trkpt>
      <trkpt lat="44.78859" lon="5.50637">
        <ele>1685.8</ele>
        <time>2026-08-19T11:17:07.056Z</time>
      </trkpt>
      <trkpt lat="44.78864" lon="5.50647">
        <ele>1688.1</ele>
        <time>2026-08-19T11:17:37.056Z</time>
      </trkpt>
      <trkpt lat="44.78867" lon="5.50644">
        <ele>1685</ele>
        <time>2026-08-19T11:21:28.077Z</time>
      </trkpt>
      <trkpt lat="44.78893" lon="5.50649">
        <ele>1678.3</ele>
        <time>2026-08-19T11:21:59.061Z</time>
      </trkpt>
      <trkpt lat="44.7892" lon="5.50667">
        <ele>1678.2</ele>
        <time>2026-08-19T11:22:30.057Z</time>
      </trkpt>
      <trkpt lat="44.78947" lon="5.50686">
        <ele>1679.1</ele>
        <time>2026-08-19T11:23:00.057Z</time>
      </trkpt>
      <trkpt lat="44.78974" lon="5.50708">
        <ele>1684.7</ele>
        <time>2026-08-19T11:23:31.057Z</time>
      </trkpt>
      <trkpt lat="44.78999" lon="5.5072">
        <ele>1685</ele>
        <time>2026-08-19T11:24:01.083Z</time>
      </trkpt>
      <trkpt lat="44.79022" lon="5.50739">
        <ele>1688.3</ele>
        <time>2026-08-19T11:24:32.066Z</time>
      </trkpt>
      <trkpt lat="44.79043" lon="5.50762">
        <ele>1678.5</ele>
        <time>2026-08-19T11:25:03.057Z</time>
      </trkpt>
      <trkpt lat="44.79078" lon="5.50785">
        <ele>1679.4</ele>
        <time>2026-08-19T11:25:34.056Z</time>
      </trkpt>
      <trkpt lat="44.79114" lon="5.50794">
        <ele>1685.3</ele>
        <time>2026-08-19T11:26:04.056Z</time>
      </trkpt>
      <trkpt lat="44.7915" lon="5.50812">
        <ele>1695.2</ele>
        <time>2026-08-19T11:26:34.057Z</time>
      </trkpt>
      <trkpt lat="44.7918" lon="5.5082">
        <ele>1699.9</ele>
        <time>2026-08-19T11:27:04.070Z</time>
      </trkpt>
      <trkpt lat="44.79207" lon="5.50831">
        <ele>1699.9</ele>
        <time>2026-08-19T11:27:35.056Z</time>
      </trkpt>
      <trkpt lat="44.7923" lon="5.50838">
        <ele>1699.8</ele>
        <time>2026-08-19T11:28:05.056Z</time>
      </trkpt>
      <trkpt lat="44.7926" lon="5.50854">
        <ele>1706.2</ele>
        <time>2026-08-19T11:28:35.057Z</time>
      </trkpt>
      <trkpt lat="44.79294" lon="5.50869">
        <ele>1707.1</ele>
        <time>2026-08-19T11:29:05.088Z</time>
      </trkpt>
      <trkpt lat="44.79319" lon="5.5089">
        <ele>1703</ele>
        <time>2026-08-19T11:29:36.073Z</time>
      </trkpt>
      <trkpt lat="44.7935" lon="5.50894">
        <ele>1706.4</ele>
        <time>2026-08-19T11:30:07.057Z</time>
      </trkpt>
      <trkpt lat="44.79376" lon="5.50909">
        <ele>1703.9</ele>
        <time>2026-08-19T11:30:37.057Z</time>
      </trkpt>
      <trkpt lat="44.79403" lon="5.509">
        <ele>1708</ele>
        <time>2026-08-19T11:31:07.057Z</time>
      </trkpt>
      <trkpt lat="44.79434" lon="5.50849">
        <ele>1715.4</ele>
        <time>2026-08-19T11:31:37.103Z</time>
      </trkpt>
      <trkpt lat="44.79456" lon="5.50807">
        <ele>1714.6</ele>
        <time>2026-08-19T11:32:08.079Z</time>
      </trkpt>
      <trkpt lat="44.79485" lon="5.50778">
        <ele>1712.9</ele>
        <time>2026-08-19T11:32:39.064Z</time>
      </trkpt>
      <trkpt lat="44.79494" lon="5.50739">
        <ele>1710.9</ele>
        <time>2026-08-19T11:33:09.072Z</time>
      </trkpt>
      <trkpt lat="44.79514" lon="5.50707">
        <ele>1713.5</ele>
        <time>2026-08-19T11:33:40.057Z</time>
      </trkpt>
      <trkpt lat="44.79534" lon="5.50685">
        <ele>1706.7</ele>
        <time>2026-08-19T11:34:10.057Z</time>
      </trkpt>
      <trkpt lat="44.79544" lon="5.50652">
        <ele>1701</ele>
        <time>2026-08-19T11:34:40.057Z</time>
      </trkpt>
      <trkpt lat="44.79554" lon="5.50612">
        <ele>1694.6</ele>
        <time>2026-08-19T11:35:11.069Z</time>
      </trkpt>
      <trkpt lat="44.79556" lon="5.50567">
        <ele>1692</ele>
        <time>2026-08-19T11:35:42.056Z</time>
      </trkpt>
      <trkpt lat="44.79571" lon="5.50532">
        <ele>1690.4</ele>
        <time>2026-08-19T11:36:12.057Z</time>
      </trkpt>
      <trkpt lat="44.79592" lon="5.50508">
        <ele>1684.8</ele>
        <time>2026-08-19T11:36:43.008Z</time>
      </trkpt>
      <trkpt lat="44.79603" lon="5.50466">
        <ele>1684.2</ele>
        <time>2026-08-19T11:37:13.056Z</time>
      </trkpt>
      <trkpt lat="44.79617" lon="5.50423">
        <ele>1683.6</ele>
        <time>2026-08-19T11:37:43.075Z</time>
      </trkpt>
      <trkpt lat="44.79642" lon="5.50403">
        <ele>1685.6</ele>
        <time>2026-08-19T11:38:14.061Z</time>
      </trkpt>
      <trkpt lat="44.79645" lon="5.50361">
        <ele>1679.6</ele>
        <time>2026-08-19T11:38:45.056Z</time>
      </trkpt>
      <trkpt lat="44.7966" lon="5.50324">
        <ele>1679.6</ele>
        <time>2026-08-19T11:39:15.056Z</time>
      </trkpt>
      <trkpt lat="44.79678" lon="5.5028">
        <ele>1681.5</ele>
        <time>2026-08-19T11:39:45.057Z</time>
      </trkpt>
      <trkpt lat="44.79704" lon="5.50258">
        <ele>1686.2</ele>
        <time>2026-08-19T11:40:15.082Z</time>
      </trkpt>
      <trkpt lat="44.79731" lon="5.50235">
        <ele>1684</ele>
        <time>2026-08-19T11:40:46.067Z</time>
      </trkpt>
      <trkpt lat="44.79752" lon="5.50221">
        <ele>1685.9</ele>
        <time>2026-08-19T11:41:16.992Z</time>
      </trkpt>
      <trkpt lat="44.79767" lon="5.50188">
        <ele>1686.2</ele>
        <time>2026-08-19T11:41:47.057Z</time>
      </trkpt>
      <trkpt lat="44.79785" lon="5.50163">
        <ele>1683.2</ele>
        <time>2026-08-19T11:42:17.057Z</time>
      </trkpt>
      <trkpt lat="44.79809" lon="5.50134">
        <ele>1686.2</ele>
        <time>2026-08-19T11:42:47.057Z</time>
      </trkpt>
      <trkpt lat="44.79827" lon="5.50114">
        <ele>1682.3</ele>
        <time>2026-08-19T11:43:17.069Z</time>
      </trkpt>
      <trkpt lat="44.79853" lon="5.5007">
        <ele>1682.3</ele>
        <time>2026-08-19T11:43:48.085Z</time>
      </trkpt>
      <trkpt lat="44.79876" lon="5.50044">
        <ele>1679.8</ele>
        <time>2026-08-19T11:44:19.056Z</time>
      </trkpt>
      <trkpt lat="44.79895" lon="5.50021">
        <ele>1682.8</ele>
        <time>2026-08-19T11:44:49.056Z</time>
      </trkpt>
      <trkpt lat="44.79917" lon="5.49995">
        <ele>1684.5</ele>
        <time>2026-08-19T11:45:19.057Z</time>
      </trkpt>
      <trkpt lat="44.79939" lon="5.49959">
        <ele>1687.4</ele>
        <time>2026-08-19T11:45:49.077Z</time>
      </trkpt>
      <trkpt lat="44.79952" lon="5.49918">
        <ele>1677.9</ele>
        <time>2026-08-19T11:46:19.973Z</time>
      </trkpt>
      <trkpt lat="44.79969" lon="5.49872">
        <ele>1675.2</ele>
        <time>2026-08-19T11:46:50.057Z</time>
      </trkpt>
      <trkpt lat="44.79994" lon="5.49833">
        <ele>1673.4</ele>
        <time>2026-08-19T11:47:21.057Z</time>
      </trkpt>
      <trkpt lat="44.8002" lon="5.498">
        <ele>1677.4</ele>
        <time>2026-08-19T11:47:51.057Z</time>
      </trkpt>
      <trkpt lat="44.8004" lon="5.49771">
        <ele>1677.6</ele>
        <time>2026-08-19T11:48:22.056Z</time>
      </trkpt>
      <trkpt lat="44.8005" lon="5.49739">
        <ele>1674.4</ele>
        <time>2026-08-19T11:48:52.070Z</time>
      </trkpt>
      <trkpt lat="44.80057" lon="5.49706">
        <ele>1677.4</ele>
        <time>2026-08-19T11:49:23.056Z</time>
      </trkpt>
      <trkpt lat="44.80069" lon="5.49675">
        <ele>1674.3</ele>
        <time>2026-08-19T11:49:53.057Z</time>
      </trkpt>
      <trkpt lat="44.80074" lon="5.4965">
        <ele>1675.3</ele>
        <time>2026-08-19T11:50:23.057Z</time>
      </trkpt>
      <trkpt lat="44.80076" lon="5.4964">
        <ele>1674.9</ele>
        <time>2026-08-19T11:51:04.061Z</time>
      </trkpt>
      <trkpt lat="44.80079" lon="5.49627">
        <ele>1678.5</ele>
        <time>2026-08-19T11:53:08.022Z</time>
      </trkpt>
      <trkpt lat="44.80087" lon="5.4967">
        <ele>1668.8</ele>
        <time>2026-08-19T11:53:38.057Z</time>
      </trkpt>
      <trkpt lat="44.80105" lon="5.49707">
        <ele>1663</ele>
        <time>2026-08-19T11:54:09.007Z</time>
      </trkpt>
      <trkpt lat="44.8013" lon="5.49748">
        <ele>1663.5</ele>
        <time>2026-08-19T11:54:39.056Z</time>
      </trkpt>
      <trkpt lat="44.80156" lon="5.49789">
        <ele>1667</ele>
        <time>2026-08-19T11:55:09.065Z</time>
      </trkpt>
      <trkpt lat="44.8018" lon="5.49833">
        <ele>1670.2</ele>
        <time>2026-08-19T11:55:40.056Z</time>
      </trkpt>
      <trkpt lat="44.80201" lon="5.49875">
        <ele>1670.3</ele>
        <time>2026-08-19T11:56:10.056Z</time>
      </trkpt>
      <trkpt lat="44.80226" lon="5.4991">
        <ele>1671</ele>
        <time>2026-08-19T11:56:40.057Z</time>
      </trkpt>
      <trkpt lat="44.80251" lon="5.49956">
        <ele>1670.2</ele>
        <time>2026-08-19T11:57:11.031Z</time>
      </trkpt>
      <trkpt lat="44.80279" lon="5.49992">
        <ele>1669.4</ele>
        <time>2026-08-19T11:57:41.070Z</time>
      </trkpt>
      <trkpt lat="44.80301" lon="5.50034">
        <ele>1670.7</ele>
        <time>2026-08-19T11:58:11.070Z</time>
      </trkpt>
      <trkpt lat="44.80322" lon="5.50068">
        <ele>1670.9</ele>
        <time>2026-08-19T11:58:42.056Z</time>
      </trkpt>
      <trkpt lat="44.80347" lon="5.50105">
        <ele>1671.5</ele>
        <time>2026-08-19T11:59:12.056Z</time>
      </trkpt>
      <trkpt lat="44.80374" lon="5.5014">
        <ele>1669.3</ele>
        <time>2026-08-19T11:59:42.057Z</time>
      </trkpt>
      <trkpt lat="44.80399" lon="5.50175">
        <ele>1666.4</ele>
        <time>2026-08-19T12:00:12.070Z</time>
      </trkpt>
      <trkpt lat="44.80431" lon="5.50186">
        <ele>1669.3</ele>
        <time>2026-08-19T12:00:43.085Z</time>
      </trkpt>
      <trkpt lat="44.80466" lon="5.50207">
        <ele>1666.9</ele>
        <time>2026-08-19T12:01:13.971Z</time>
      </trkpt>
      <trkpt lat="44.80495" lon="5.50232">
        <ele>1665.2</ele>
        <time>2026-08-19T12:01:44.057Z</time>
      </trkpt>
      <trkpt lat="44.80518" lon="5.5026">
        <ele>1662.3</ele>
        <time>2026-08-19T12:02:14.057Z</time>
      </trkpt>
      <trkpt lat="44.80537" lon="5.50301">
        <ele>1663</ele>
        <time>2026-08-19T12:02:44.078Z</time>
      </trkpt>
      <trkpt lat="44.80551" lon="5.50345">
        <ele>1665.2</ele>
        <time>2026-08-19T12:03:15.064Z</time>
      </trkpt>
      <trkpt lat="44.80573" lon="5.5039">
        <ele>1667.1</ele>
        <time>2026-08-19T12:03:46.029Z</time>
      </trkpt>
      <trkpt lat="44.80596" lon="5.50433">
        <ele>1670.4</ele>
        <time>2026-08-19T12:04:16.057Z</time>
      </trkpt>
      <trkpt lat="44.80615" lon="5.50482">
        <ele>1670.1</ele>
        <time>2026-08-19T12:04:47.056Z</time>
      </trkpt>
      <trkpt lat="44.80619" lon="5.50535">
        <ele>1668.1</ele>
        <time>2026-08-19T12:05:17.057Z</time>
      </trkpt>
      <trkpt lat="44.80628" lon="5.50587">
        <ele>1671.1</ele>
        <time>2026-08-19T12:05:48.078Z</time>
      </trkpt>
      <trkpt lat="44.80614" lon="5.5064">
        <ele>1670.6</ele>
        <time>2026-08-19T12:06:19.063Z</time>
      </trkpt>
      <trkpt lat="44.80606" lon="5.50694">
        <ele>1670.2</ele>
        <time>2026-08-19T12:06:50.056Z</time>
      </trkpt>
      <trkpt lat="44.80603" lon="5.50737">
        <ele>1672.4</ele>
        <time>2026-08-19T12:07:20.057Z</time>
      </trkpt>
      <trkpt lat="44.80591" lon="5.5078">
        <ele>1676.6</ele>
        <time>2026-08-19T12:07:50.057Z</time>
      </trkpt>
      <trkpt lat="44.80589" lon="5.50787">
        <ele>1682.3</ele>
        <time>2026-08-19T12:12:47.074Z</time>
      </trkpt>
      <trkpt lat="44.80581" lon="5.50807">
        <ele>1674.9</ele>
        <time>2026-08-19T12:13:18.059Z</time>
      </trkpt>
      <trkpt lat="44.80571" lon="5.50848">
        <ele>1677.6</ele>
        <time>2026-08-19T12:13:49.056Z</time>
      </trkpt>
      <trkpt lat="44.80557" lon="5.50887">
        <ele>1678.2</ele>
        <time>2026-08-19T12:14:19.056Z</time>
      </trkpt>
      <trkpt lat="44.80554" lon="5.50932">
        <ele>1675.8</ele>
        <time>2026-08-19T12:14:49.056Z</time>
      </trkpt>
      <trkpt lat="44.8055" lon="5.50979">
        <ele>1677.8</ele>
        <time>2026-08-19T12:15:19.057Z</time>
      </trkpt>
      <trkpt lat="44.80541" lon="5.51028">
        <ele>1676.9</ele>
        <time>2026-08-19T12:15:49.057Z</time>
      </trkpt>
      <trkpt lat="44.80542" lon="5.51074">
        <ele>1680.3</ele>
        <time>2026-08-19T12:16:20.057Z</time>
      </trkpt>
      <trkpt lat="44.80554" lon="5.51105">
        <ele>1672.1</ele>
        <time>2026-08-19T12:16:51.065Z</time>
      </trkpt>
      <trkpt lat="44.80582" lon="5.51143">
        <ele>1659.5</ele>
        <time>2026-08-19T12:17:22.056Z</time>
      </trkpt>
      <trkpt lat="44.8061" lon="5.51181">
        <ele>1649</ele>
        <time>2026-08-19T12:17:52.056Z</time>
      </trkpt>
      <trkpt lat="44.80648" lon="5.51197">
        <ele>1641.4</ele>
        <time>2026-08-19T12:18:22.066Z</time>
      </trkpt>
      <trkpt lat="44.8067" lon="5.51203">
        <ele>1646</ele>
        <time>2026-08-19T12:18:53.057Z</time>
      </trkpt>
      <trkpt lat="44.80675" lon="5.51207">
        <ele>1649.5</ele>
        <time>2026-08-19T12:19:25.057Z</time>
      </trkpt>
      <trkpt lat="44.807" lon="5.51215">
        <ele>1644.2</ele>
        <time>2026-08-19T12:19:56.059Z</time>
      </trkpt>
      <trkpt lat="44.80733" lon="5.51216">
        <ele>1638.1</ele>
        <time>2026-08-19T12:20:27.025Z</time>
      </trkpt>
      <trkpt lat="44.80767" lon="5.51229">
        <ele>1637.2</ele>
        <time>2026-08-19T12:20:57.057Z</time>
      </trkpt>
      <trkpt lat="44.80785" lon="5.51236">
        <ele>1638.6</ele>
        <time>2026-08-19T12:21:28.057Z</time>
      </trkpt>
      <trkpt lat="44.80791" lon="5.51239">
        <ele>1639.4</ele>
        <time>2026-08-19T12:21:58.057Z</time>
      </trkpt>
      <trkpt lat="44.80796" lon="5.51243">
        <ele>1644.7</ele>
        <time>2026-08-19T12:24:59.056Z</time>
      </trkpt>
      <trkpt lat="44.80809" lon="5.51226">
        <ele>1637.7</ele>
        <time>2026-08-19T12:25:29.057Z</time>
      </trkpt>
      <trkpt lat="44.80837" lon="5.51233">
        <ele>1634.2</ele>
        <time>2026-08-19T12:25:59.057Z</time>
      </trkpt>
      <trkpt lat="44.80874" lon="5.51232">
        <ele>1628.9</ele>
        <time>2026-08-19T12:26:29.057Z</time>
      </trkpt>
      <trkpt lat="44.8091" lon="5.51226">
        <ele>1626.4</ele>
        <time>2026-08-19T12:26:59.057Z</time>
      </trkpt>
      <trkpt lat="44.80942" lon="5.5124">
        <ele>1621.3</ele>
        <time>2026-08-19T12:27:29.066Z</time>
      </trkpt>
      <trkpt lat="44.80978" lon="5.51268">
        <ele>1621.2</ele>
        <time>2026-08-19T12:28:00.057Z</time>
      </trkpt>
      <trkpt lat="44.80996" lon="5.51281">
        <ele>1611.8</ele>
        <time>2026-08-19T12:28:31.057Z</time>
      </trkpt>
      <trkpt lat="44.81026" lon="5.5126">
        <ele>1615.7</ele>
        <time>2026-08-19T12:29:01.057Z</time>
      </trkpt>
      <trkpt lat="44.81011" lon="5.51293">
        <ele>1601.5</ele>
        <time>2026-08-19T12:29:31.083Z</time>
      </trkpt>
      <trkpt lat="44.81026" lon="5.51305">
        <ele>1592.6</ele>
        <time>2026-08-19T12:30:02.088Z</time>
      </trkpt>
      <trkpt lat="44.81056" lon="5.51323">
        <ele>1580</ele>
        <time>2026-08-19T12:30:33.062Z</time>
      </trkpt>
      <trkpt lat="44.81096" lon="5.51336">
        <ele>1563</ele>
        <time>2026-08-19T12:31:04.046Z</time>
      </trkpt>
      <trkpt lat="44.81097" lon="5.51365">
        <ele>1560.2</ele>
        <time>2026-08-19T12:31:34.057Z</time>
      </trkpt>
      <trkpt lat="44.81118" lon="5.5139">
        <ele>1546.7</ele>
        <time>2026-08-19T12:32:05.056Z</time>
      </trkpt>
      <trkpt lat="44.81145" lon="5.51401">
        <ele>1538.5</ele>
        <time>2026-08-19T12:32:35.056Z</time>
      </trkpt>
      <trkpt lat="44.81163" lon="5.51422">
        <ele>1532.8</ele>
        <time>2026-08-19T12:33:05.057Z</time>
      </trkpt>
      <trkpt lat="44.81179" lon="5.51446">
        <ele>1524.5</ele>
        <time>2026-08-19T12:33:36.061Z</time>
      </trkpt>
      <trkpt lat="44.81208" lon="5.5147">
        <ele>1510.8</ele>
        <time>2026-08-19T12:34:07.057Z</time>
      </trkpt>
      <trkpt lat="44.81236" lon="5.51498">
        <ele>1499</ele>
        <time>2026-08-19T12:34:37.057Z</time>
      </trkpt>
      <trkpt lat="44.81246" lon="5.51546">
        <ele>1486.8</ele>
        <time>2026-08-19T12:35:07.057Z</time>
      </trkpt>
      <trkpt lat="44.81256" lon="5.51592">
        <ele>1481.3</ele>
        <time>2026-08-19T12:35:38.056Z</time>
      </trkpt>
      <trkpt lat="44.8126" lon="5.51614">
        <ele>1462.2</ele>
        <time>2026-08-19T12:36:08.056Z</time>
      </trkpt>
      <trkpt lat="44.81277" lon="5.5166">
        <ele>1448.4</ele>
        <time>2026-08-19T12:36:38.057Z</time>
      </trkpt>
      <trkpt lat="44.81282" lon="5.51713">
        <ele>1426.2</ele>
        <time>2026-08-19T12:37:09.061Z</time>
      </trkpt>
      <trkpt lat="44.81307" lon="5.51749">
        <ele>1401</ele>
        <time>2026-08-19T12:37:39.965Z</time>
      </trkpt>
      <trkpt lat="44.81314" lon="5.51799">
        <ele>1396.1</ele>
        <time>2026-08-19T12:38:10.005Z</time>
      </trkpt>
      <trkpt lat="44.8133" lon="5.51813">
        <ele>1381.4</ele>
        <time>2026-08-19T12:38:40.023Z</time>
      </trkpt>
      <trkpt lat="44.81323" lon="5.51849">
        <ele>1367.9</ele>
        <time>2026-08-19T12:39:10.063Z</time>
      </trkpt>
      <trkpt lat="44.813" lon="5.51875">
        <ele>1349.5</ele>
        <time>2026-08-19T12:39:40.996Z</time>
      </trkpt>
      <trkpt lat="44.81335" lon="5.51939">
        <ele>1339.9</ele>
        <time>2026-08-19T12:40:11.981Z</time>
      </trkpt>
      <trkpt lat="44.81375" lon="5.51977">
        <ele>1335.5</ele>
        <time>2026-08-19T12:40:42.057Z</time>
      </trkpt>
      <trkpt lat="44.81416" lon="5.52009">
        <ele>1316</ele>
        <time>2026-08-19T12:41:13.057Z</time>
      </trkpt>
      <trkpt lat="44.8147" lon="5.52044">
        <ele>1305.1</ele>
        <time>2026-08-19T12:41:43.999Z</time>
      </trkpt>
      <trkpt lat="44.81493" lon="5.52096">
        <ele>1301.7</ele>
        <time>2026-08-19T12:42:14.059Z</time>
      </trkpt>
      <trkpt lat="44.81515" lon="5.52129">
        <ele>1293.5</ele>
        <time>2026-08-19T12:42:45.056Z</time>
      </trkpt>
      <trkpt lat="44.81533" lon="5.52158">
        <ele>1280.6</ele>
        <time>2026-08-19T12:43:15.056Z</time>
      </trkpt>
      <trkpt lat="44.81566" lon="5.52183">
        <ele>1268.6</ele>
        <time>2026-08-19T12:43:45.057Z</time>
      </trkpt>
      <trkpt lat="44.81594" lon="5.52217">
        <ele>1257.9</ele>
        <time>2026-08-19T12:44:16.057Z</time>
      </trkpt>
      <trkpt lat="44.81587" lon="5.52214">
        <ele>1249.5</ele>
        <time>2026-08-19T12:44:46.064Z</time>
      </trkpt>
      <trkpt lat="44.816" lon="5.52244">
        <ele>1243.8</ele>
        <time>2026-08-19T12:45:17.057Z</time>
      </trkpt>
      <trkpt lat="44.81611" lon="5.52259">
        <ele>1244.8</ele>
        <time>2026-08-19T12:45:47.057Z</time>
      </trkpt>
      <trkpt lat="44.81637" lon="5.5229">
        <ele>1237.8</ele>
        <time>2026-08-19T12:46:17.057Z</time>
      </trkpt>
      <trkpt lat="44.81666" lon="5.52339">
        <ele>1232.6</ele>
        <time>2026-08-19T12:46:48.056Z</time>
      </trkpt>
      <trkpt lat="44.81687" lon="5.52397">
        <ele>1227.4</ele>
        <time>2026-08-19T12:47:19.056Z</time>
      </trkpt>
      <trkpt lat="44.81708" lon="5.52446">
        <ele>1227.2</ele>
        <time>2026-08-19T12:47:49.057Z</time>
      </trkpt>
      <trkpt lat="44.81738" lon="5.52491">
        <ele>1218.1</ele>
        <time>2026-08-19T12:48:19.057Z</time>
      </trkpt>
      <trkpt lat="44.81769" lon="5.52534">
        <ele>1213</ele>
        <time>2026-08-19T12:48:50.056Z</time>
      </trkpt>
      <trkpt lat="44.81804" lon="5.52565">
        <ele>1211.6</ele>
        <time>2026-08-19T12:49:20.056Z</time>
      </trkpt>
      <trkpt lat="44.81841" lon="5.52607">
        <ele>1208.2</ele>
        <time>2026-08-19T12:49:50.057Z</time>
      </trkpt>
      <trkpt lat="44.81861" lon="5.52652">
        <ele>1205.2</ele>
        <time>2026-08-19T12:50:20.057Z</time>
      </trkpt>
      <trkpt lat="44.81865" lon="5.52717">
        <ele>1208.6</ele>
        <time>2026-08-19T12:50:50.057Z</time>
      </trkpt>
      <trkpt lat="44.81883" lon="5.52768">
        <ele>1199</ele>
        <time>2026-08-19T12:51:20.057Z</time>
      </trkpt>
      <trkpt lat="44.81906" lon="5.52834">
        <ele>1198.7</ele>
        <time>2026-08-19T12:51:51.063Z</time>
      </trkpt>
      <trkpt lat="44.8192" lon="5.52893">
        <ele>1193.8</ele>
        <time>2026-08-19T12:52:22.057Z</time>
      </trkpt>
      <trkpt lat="44.81914" lon="5.52955">
        <ele>1194.5</ele>
        <time>2026-08-19T12:52:53.063Z</time>
      </trkpt>
      <trkpt lat="44.81909" lon="5.53025">
        <ele>1194.9</ele>
        <time>2026-08-19T12:53:24.056Z</time>
      </trkpt>
      <trkpt lat="44.81888" lon="5.53084">
        <ele>1198.2</ele>
        <time>2026-08-19T12:53:54.057Z</time>
      </trkpt>
      <trkpt lat="44.8188" lon="5.53149">
        <ele>1197.2</ele>
        <time>2026-08-19T12:54:24.980Z</time>
      </trkpt>
      <trkpt lat="44.8187" lon="5.53207">
        <ele>1181.4</ele>
        <time>2026-08-19T12:54:55.057Z</time>
      </trkpt>
      <trkpt lat="44.81887" lon="5.53262">
        <ele>1179.2</ele>
        <time>2026-08-19T12:55:25.069Z</time>
      </trkpt>
      <trkpt lat="44.81891" lon="5.53322">
        <ele>1174.3</ele>
        <time>2026-08-19T12:55:55.963Z</time>
      </trkpt>
      <trkpt lat="44.819" lon="5.53381">
        <ele>1170.5</ele>
        <time>2026-08-19T12:56:26.056Z</time>
      </trkpt>
      <trkpt lat="44.81915" lon="5.53437">
        <ele>1166.9</ele>
        <time>2026-08-19T12:56:56.057Z</time>
      </trkpt>
      <trkpt lat="44.81925" lon="5.53505">
        <ele>1169.1</ele>
        <time>2026-08-19T12:57:27.065Z</time>
      </trkpt>
      <trkpt lat="44.81942" lon="5.53576">
        <ele>1163.6</ele>
        <time>2026-08-19T12:57:57.959Z</time>
      </trkpt>
      <trkpt lat="44.81962" lon="5.53633">
        <ele>1153.8</ele>
        <time>2026-08-19T12:58:28.057Z</time>
      </trkpt>
      <trkpt lat="44.8198" lon="5.53687">
        <ele>1154.4</ele>
        <time>2026-08-19T12:58:58.057Z</time>
      </trkpt>
      <trkpt lat="44.82001" lon="5.53741">
        <ele>1150.4</ele>
        <time>2026-08-19T12:59:29.056Z</time>
      </trkpt>
      <trkpt lat="44.82016" lon="5.53798">
        <ele>1144.2</ele>
        <time>2026-08-19T12:59:59.056Z</time>
      </trkpt>
    </trkseg>
  </trk>
</gpx>